»·PEaware :: UPS150 KLAS-KSFO

UPS150 :: KLAS-KSFO

FLIGHT INFORMATION

Flight Status: Arrived
Operator:
United Parcel Service
More flights by this operator :: More flights under this callsign
Pilot: Christopher C. (25813)
Aircraft: Boeing 747-8
(B748)
More flights by this aircraft type
Origin: KLAS McCarran Intl
United States
Destination: KSFO San Francisco Intl
United States
More flights between these airports :: More routes between these airports
Route: +SHEAD1 OAL INYOE DYAMD5
File this flight plan on PilotEdge
Remarks: RMK / SIMBRIEF
Altitude:
(Current/Filed)
40,000ft
Speed:
(Current/Filed)
463kts
Departed: 22-Jun-20 08:04 PM
Arrived: 22-Jun-20 09:09 PM
Distance/Time
Traveled:
359nm/1:05
Distance/Time
To Go:
Arrived

Flight Plot

Page will automatically refresh every two minutes.

Flight plan parsing failed; only flown route is shown


Map Options




Map Legend


Flown Route
Filed Route
Departure Airport
Arrival Airport
Navaid (VOR, NDB)
Fix

Horizontal Profiles

Position Reports

Time Latitude Longitude Heading Altitude Ground
Speed
22-Jun-20 19:21 36.081707 -115.129543 89 2128ft 0kts
22-Jun-20 19:22 36.081707 -115.129543 89 2128ft 0kts
22-Jun-20 19:23 36.081707 -115.129543 89 2128ft 0kts
22-Jun-20 19:24 36.081707 -115.129543 89 2128ft 0kts
22-Jun-20 19:25 36.081707 -115.129543 89 2128ft 0kts
22-Jun-20 19:26 36.081707 -115.129543 89 2128ft 0kts
22-Jun-20 19:27 36.081707 -115.129543 89 2128ft 0kts
22-Jun-20 19:28 36.081707 -115.129543 89 2128ft 0kts
22-Jun-20 19:29 36.081707 -115.129543 89 2128ft 0kts
22-Jun-20 19:30 36.081707 -115.129543 89 2128ft 0kts
22-Jun-20 19:31 36.081707 -115.129543 89 2128ft 0kts
22-Jun-20 19:32 36.081707 -115.129543 89 2128ft 0kts
22-Jun-20 19:33 36.081707 -115.129543 89 2128ft 0kts
22-Jun-20 19:34 36.081707 -115.129543 89 2128ft 0kts
22-Jun-20 19:35 36.081707 -115.129543 89 2128ft 0kts
22-Jun-20 19:36 36.081707 -115.129543 89 2128ft 0kts
22-Jun-20 19:37 36.081707 -115.129543 89 2128ft 0kts
22-Jun-20 19:38 36.081707 -115.129543 89 2128ft 0kts
22-Jun-20 19:39 36.081707 -115.129543 89 2128ft 0kts
22-Jun-20 19:40 36.081707 -115.129543 89 2128ft 0kts
22-Jun-20 19:41 36.081707 -115.129543 89 2128ft 0kts
22-Jun-20 19:42 36.081707 -115.129543 89 2128ft 0kts
22-Jun-20 19:43 36.081717 -115.129880 100 2128ft 2kts
22-Jun-20 19:44 36.082119 -115.130610 163 2128ft 2kts
22-Jun-20 19:45 36.082360 -115.130668 177 2128ft 0kts
22-Jun-20 19:46 36.082360 -115.130668 177 2128ft 0kts
22-Jun-20 19:47 36.082360 -115.130668 177 2128ft 0kts
22-Jun-20 19:48 36.082360 -115.130668 177 2128ft 0kts
22-Jun-20 19:49 36.082258 -115.130662 177 2128ft 7kts
22-Jun-20 19:50 36.080505 -115.130641 179 2128ft 0kts
22-Jun-20 19:51 36.080504 -115.130641 179 2128ft 0kts
22-Jun-20 19:52 36.079799 -115.130529 162 2128ft 13kts
22-Jun-20 19:53 36.078273 -115.134755 272 2128ft 27kts
22-Jun-20 19:54 36.078255 -115.142808 269 2128ft 20kts
22-Jun-20 19:55 36.078705 -115.150114 274 2128ft 26kts
22-Jun-20 19:56 36.080359 -115.154289 335 2128ft 24kts
22-Jun-20 19:57 36.086748 -115.157890 352 2128ft 10kts
22-Jun-20 19:58 36.092170 -115.155050 24 2128ft 23kts
22-Jun-20 19:59 36.097114 -115.152193 21 2128ft 12kts
22-Jun-20 20:00 36.097806 -115.152314 311 2128ft 0kts
22-Jun-20 20:01 36.097806 -115.152315 311 2128ft 0kts
22-Jun-20 20:02 36.097261 -115.154302 202 2128ft 0kts
22-Jun-20 20:03 36.068538 -115.169751 202 2937ft 211kts
22-Jun-20 20:04 36.015576 -115.201731 223 6261ft 243kts
22-Jun-20 20:05 35.979002 -115.283854 242 6933ft 278kts
22-Jun-20 20:06 35.927192 -115.355476 223 8791ft 290kts
22-Jun-20 20:07 35.886037 -115.436074 263 9315ft 292kts
22-Jun-20 20:09 35.888547 -115.549048 271 10883ft 366kts
22-Jun-20 20:10 35.891014 -115.675416 271 11167ft 375kts
22-Jun-20 20:11 35.893273 -115.806017 271 16118ft 389kts
22-Jun-20 20:12 35.897919 -115.942250 285 18854ft 400kts
22-Jun-20 20:13 35.964308 -116.051815 316 20451ft 409kts
22-Jun-20 20:14 36.050078 -116.149246 316 22925ft 426kts
22-Jun-20 20:15 36.138229 -116.251013 316 25435ft 442kts
22-Jun-20 20:16 36.230287 -116.356843 316 28512ft 462kts
22-Jun-20 20:17 36.325997 -116.468094 316 31005ft 479kts
22-Jun-20 20:18 36.424334 -116.583102 316 32990ft 493kts
22-Jun-20 20:19 36.523774 -116.699556 315 35216ft 488kts
22-Jun-20 20:20 36.631501 -116.800964 328 37083ft 485kts
22-Jun-20 20:21 36.746665 -116.887063 327 38720ft 481kts
22-Jun-20 20:22 36.860472 -116.973907 327 39981ft 478kts
22-Jun-20 20:23 36.974129 -117.060483 327 40042ft 478kts
22-Jun-20 20:24 37.087620 -117.147362 327 40047ft 478kts
22-Jun-20 20:24 37.182037 -117.220270 327 40058ft 478kts
22-Jun-20 20:26 37.314405 -117.321498 330 40073ft 479kts
22-Jun-20 20:27 37.433270 -117.397981 332 40129ft 480kts
22-Jun-20 20:27 37.532215 -117.462180 331 40139ft 480kts
22-Jun-20 20:29 37.670626 -117.552152 331 40117ft 481kts
22-Jun-20 20:29 37.770168 -117.616950 332 40115ft 481kts
22-Jun-20 20:30 37.889028 -117.695078 331 40118ft 482kts
22-Jun-20 20:31 37.981736 -117.809516 285 40113ft 480kts
22-Jun-20 20:32 37.982759 -117.977023 261 40099ft 477kts
22-Jun-20 20:33 37.963515 -118.143250 261 40087ft 477kts
22-Jun-20 20:34 37.945826 -118.309834 261 40080ft 477kts
22-Jun-20 20:35 37.928055 -118.476660 261 40196ft 476kts
22-Jun-20 20:36 37.909449 -118.642484 261 40231ft 475kts
22-Jun-20 20:37 37.890693 -118.808393 261 37216ft 481kts
22-Jun-20 20:38 37.871189 -118.977228 261 33330ft 487kts
22-Jun-20 20:39 37.851247 -119.147251 261 29658ft 480kts
22-Jun-20 20:40 37.833454 -119.303529 261 27597ft 474kts
22-Jun-20 20:41 37.813056 -119.477751 261 27226ft 511kts
22-Jun-20 20:42 37.792964 -119.645875 260 27119ft 441kts
22-Jun-20 20:43 37.775093 -119.793606 260 27088ft 424kts
22-Jun-20 20:44 37.757034 -119.941276 260 26975ft 424kts
22-Jun-20 20:45 37.739163 -120.088865 260 26983ft 425kts
22-Jun-20 20:46 37.720589 -120.236153 260 26972ft 425kts
22-Jun-20 20:47 37.701814 -120.383570 260 26930ft 425kts
22-Jun-20 20:48 37.684682 -120.530762 260 25429ft 417kts
22-Jun-20 20:49 37.667883 -120.672534 260 23240ft 402kts
22-Jun-20 20:50 37.651562 -120.810081 260 21568ft 387kts
22-Jun-20 20:51 37.635409 -120.943000 260 19327ft 380kts
22-Jun-20 20:52 37.618610 -121.072161 259 17607ft 369kts
22-Jun-20 20:53 37.601469 -121.198722 259 15940ft 362kts
22-Jun-20 20:54 37.585876 -121.322717 261 14325ft 353kts
22-Jun-20 20:55 37.572841 -121.437368 260 12814ft 309kts
22-Jun-20 20:56 37.560452 -121.542786 260 11438ft 299kts
22-Jun-20 20:57 37.546753 -121.644889 254 10101ft 291kts
22-Jun-20 20:58 37.523206 -121.740467 252 8807ft 284kts
22-Jun-20 20:59 37.500971 -121.833188 253 7597ft 274kts
22-Jun-20 21:00 37.497476 -121.926203 280 6443ft 270kts
22-Jun-20 21:01 37.512725 -122.018844 280 4946ft 266kts
22-Jun-20 21:02 37.526365 -122.109036 279 3219ft 252kts
22-Jun-20 21:03 37.540338 -122.184513 291 2917ft 195kts
22-Jun-20 21:04 37.564424 -122.240312 296 2081ft 166kts
22-Jun-20 21:05 37.582756 -122.283863 297 1314ft 128kts
22-Jun-20 21:06 37.598810 -122.322083 298 659ft 123kts
22-Jun-20 21:07 37.614899 -122.360502 298 34ft 120kts
22-Jun-20 21:08 37.622183 -122.380222 275 26ft 26kts

Navigation Log

Ident Type
Flight plan parsing failed, navigation log unavailable